sensor_id;sensor_type;location;lat;lon;timestamp;pressure;altitude;pressure_sealevel;temperature;humidity
51299;BME280;37382;45.192;9.790;2023-04-01T00:00:48;100126.97;;;10.31;100.00
51299;BME280;37382;45.192;9.790;2023-04-01T00:03:17;100126.97;;;10.18;100.00
51299;BME280;37382;45.192;9.790;2023-04-01T00:05:45;100120.28;;;10.27;100.00
51299;BME280;37382;45.192;9.790;2023-04-01T00:08:14;100111.31;;;10.33;100.00
51299;BME280;37382;45.192;9.790;2023-04-01T00:10:41;100123.88;;;10.35;100.00
51299;BME280;37382;45.192;9.790;2023-04-01T00:13:09;100123.00;;;10.27;100.00
51299;BME280;37382;45.192;9.790;2023-04-01T00:15:36;100118.00;;;10.31;100.00
51299;BME280;37382;45.192;9.790;2023-04-01T00:18:04;100100.63;;;10.32;100.00
51299;BME280;37382;45.192;9.790;2023-04-01T00:20:32;100107.53;;;10.48;100.00
51299;BME280;37382;45.192;9.790;2023-04-01T00:23:01;100110.25;;;10.41;100.00
51299;BME280;37382;45.192;9.790;2023-04-01T00:25:28;100120.94;;;10.36;100.00
51299;BME280;37382;45.192;9.790;2023-04-01T00:27:56;100106.28;;;10.44;100.00
51299;BME280;37382;45.192;9.790;2023-04-01T00:30:24;100111.31;;;10.40;100.00
51299;BME280;37382;45.192;9.790;2023-04-01T00:32:52;100113.19;;;10.46;100.00
51299;BME280;37382;45.192;9.790;2023-04-01T00:35:21;100117.56;;;10.54;100.00
51299;BME280;37382;45.192;9.790;2023-04-01T00:37:49;100112.13;;;10.54;100.00
51299;BME280;37382;45.192;9.790;2023-04-01T00:40:32;100108.34;;;10.48;100.00
51299;BME280;37382;45.192;9.790;2023-04-01T00:43:00;100114.44;;;10.44;100.00
51299;BME280;37382;45.192;9.790;2023-04-01T00:45:36;100113.81;;;10.28;100.00
51299;BME280;37382;45.192;9.790;2023-04-01T00:48:10;100115.50;;;10.29;100.00
51299;BME280;37382;45.192;9.790;2023-04-01T00:50:40;100121.34;;;10.26;100.00
51299;BME280;37382;45.192;9.790;2023-04-01T00:53:10;100118.63;;;10.26;100.00
51299;BME280;37382;45.192;9.790;2023-04-01T00:55:41;100114.44;;;10.24;100.00
51299;BME280;37382;45.192;9.790;2023-04-01T00:58:14;100114.88;;;10.21;100.00
51299;BME280;37382;45.192;9.790;2023-04-01T01:00:45;100117.56;;;10.14;100.00
51299;BME280;37382;45.192;9.790;2023-04-01T01:03:14;100111.13;;;10.08;100.00
51299;BME280;37382;45.192;9.790;2023-04-01T01:05:47;100118.81;;;10.05;100.00
51299;BME280;37382;45.192;9.790;2023-04-01T01:11:14;100117.59;;;9.87;100.00
51299;BME280;37382;45.192;9.790;2023-04-01T01:13:58;100122.00;;;9.88;100.00
51299;BME280;37382;45.192;9.790;2023-04-01T01:16:37;100125.13;;;9.85;100.00
51299;BME280;37382;45.192;9.790;2023-04-01T01:22:19;100111.72;;;9.77;100.00
51299;BME280;37382;45.192;9.790;2023-04-01T01:25:16;100105.03;;;9.66;100.00
51299;BME280;37382;45.192;9.790;2023-04-01T01:28:11;100114.47;;;9.84;100.00
51299;BME280;37382;45.192;9.790;2023-04-01T01:33:35;100106.66;;;9.40;100.00
51299;BME280;37382;45.192;9.790;2023-04-01T01:36:09;100102.91;;;9.41;100.00
51299;BME280;37382;45.192;9.790;2023-04-01T01:38:40;100106.03;;;9.38;100.00
51299;BME280;37382;45.192;9.790;2023-04-01T01:41:08;100111.22;;;9.33;100.00
51299;BME280;37382;45.192;9.790;2023-04-01T01:43:40;100103.75;;;9.35;100.00
51299;BME280;37382;45.192;9.790;2023-04-01T01:46:16;100093.53;;;9.44;100.00
51299;BME280;37382;45.192;9.790;2023-04-01T01:48:46;100097.28;;;9.50;100.00
51299;BME280;37382;45.192;9.790;2023-04-01T01:51:14;100094.78;;;9.48;100.00
51299;BME280;37382;45.192;9.790;2023-04-01T01:53:43;100099.16;;;9.49;100.00
51299;BME280;37382;45.192;9.790;2023-04-01T01:56:11;100097.69;;;9.47;100.00
51299;BME280;37382;45.192;9.790;2023-04-01T01:58:58;100095.00;;;9.53;100.00
51299;BME280;37382;45.192;9.790;2023-04-01T02:01:29;100094.38;;;9.44;100.00
51299;BME280;37382;45.192;9.790;2023-04-01T02:04:07;100096.22;;;9.37;100.00
51299;BME280;37382;45.192;9.790;2023-04-01T02:06:39;100089.75;;;9.38;100.00
51299;BME280;37382;45.192;9.790;2023-04-01T02:09:10;100094.09;;;9.19;100.00
51299;BME280;37382;45.192;9.790;2023-04-01T02:11:59;100103.72;;;9.29;100.00
51299;BME280;37382;45.192;9.790;2023-04-01T02:14:46;100101.00;;;9.29;100.00
51299;BME280;37382;45.192;9.790;2023-04-01T02:17:21;100107.03;;;9.17;100.00
51299;BME280;37382;45.192;9.790;2023-04-01T02:19:54;100105.22;;;9.44;100.00
51299;BME280;37382;45.192;9.790;2023-04-01T02:22:39;100101.44;;;9.32;100.00
51299;BME280;37382;45.192;9.790;2023-04-01T02:25:13;100108.56;;;9.40;100.00
51299;BME280;37382;45.192;9.790;2023-04-01T02:27:43;100103.34;;;9.38;100.00
51299;BME280;37382;45.192;9.790;2023-04-01T02:30:13;100106.66;;;9.34;100.00
51299;BME280;37382;45.192;9.790;2023-04-01T02:32:41;100108.53;;;9.33;100.00
51299;BME280;37382;45.192;9.790;2023-04-01T02:35:12;100104.81;;;9.41;100.00
51299;BME280;37382;45.192;9.790;2023-04-01T02:37:41;100108.34;;;9.41;100.00
51299;BME280;37382;45.192;9.790;2023-04-01T02:40:14;100108.56;;;9.47;100.00
51299;BME280;37382;45.192;9.790;2023-04-01T02:42:42;100107.97;;;9.58;100.00
51299;BME280;37382;45.192;9.790;2023-04-01T02:45:10;100115.47;;;9.49;100.00
51299;BME280;37382;45.192;9.790;2023-04-01T02:47:37;100111.72;;;9.50;100.00
51299;BME280;37382;45.192;9.790;2023-04-01T02:50:07;100111.09;;;9.55;100.00
51299;BME280;37382;45.192;9.790;2023-04-01T02:52:35;100123.41;;;9.51;100.00
51299;BME280;37382;45.192;9.790;2023-04-01T02:55:03;100125.28;;;9.50;100.00
51299;BME280;37382;45.192;9.790;2023-04-01T02:57:32;100132.75;;;9.35;100.00
51299;BME280;37382;45.192;9.790;2023-04-01T02:59:59;100131.34;;;9.46;100.00
51299;BME280;37382;45.192;9.790;2023-04-01T03:02:27;100135.91;;;9.45;100.00
51299;BME280;37382;45.192;9.790;2023-04-01T03:04:55;100131.53;;;9.44;100.00
51299;BME280;37382;45.192;9.790;2023-04-01T03:07:23;100138.81;;;9.37;100.00
51299;BME280;37382;45.192;9.790;2023-04-01T03:09:50;100133.41;;;9.37;100.00
51299;BME280;37382;45.192;9.790;2023-04-01T03:12:18;100133.16;;;9.32;100.00
51299;BME280;37382;45.192;9.790;2023-04-01T03:14:50;100137.53;;;9.26;100.00
51299;BME280;37382;45.192;9.790;2023-04-01T03:17:17;100139.81;;;9.22;100.00
51299;BME280;37382;45.192;9.790;2023-04-01T03:19:45;100148.59;;;9.24;100.00
51299;BME280;37382;45.192;9.790;2023-04-01T03:22:13;100144.00;;;9.32;100.00
51299;BME280;37382;45.192;9.790;2023-04-01T03:24:42;100146.72;;;9.25;100.00
51299;BME280;37382;45.192;9.790;2023-04-01T03:27:10;100147.31;;;9.14;100.00
51299;BME280;37382;45.192;9.790;2023-04-01T03:29:38;100151.00;;;8.99;100.00
51299;BME280;37382;45.192;9.790;2023-04-01T03:32:06;100149.09;;;8.93;100.00
51299;BME280;37382;45.192;9.790;2023-04-01T03:34:33;100148.47;;;8.91;100.00
51299;BME280;37382;45.192;9.790;2023-04-01T03:37:02;100138.25;;;8.93;100.00
51299;BME280;37382;45.192;9.790;2023-04-01T03:39:31;100141.84;;;9.07;100.00
51299;BME280;37382;45.192;9.790;2023-04-01T03:41:59;100146.59;;;8.98;100.00
51299;BME280;37382;45.192;9.790;2023-04-01T03:44:31;100148.34;;;9.06;100.00
51299;BME280;37382;45.192;9.790;2023-04-01T03:46:59;100156.47;;;9.06;100.00
51299;BME280;37382;45.192;9.790;2023-04-01T03:49:28;100149.97;;;9.00;100.00
51299;BME280;37382;45.192;9.790;2023-04-01T03:51:55;100150.09;;;8.79;100.00
51299;BME280;37382;45.192;9.790;2023-04-01T03:54:23;100151.19;;;8.91;100.00
51299;BME280;37382;45.192;9.790;2023-04-01T03:56:51;100148.66;;;8.89;100.00
51299;BME280;37382;45.192;9.790;2023-04-01T03:59:20;100145.97;;;8.89;100.00
51299;BME280;37382;45.192;9.790;2023-04-01T04:01:48;100149.03;;;8.80;100.00
51299;BME280;37382;45.192;9.790;2023-04-01T04:04:15;100146.47;;;8.71;100.00
51299;BME280;37382;45.192;9.790;2023-04-01T04:06:43;100146.06;;;8.68;100.00
51299;BME280;37382;45.192;9.790;2023-04-01T04:09:10;100155.81;;;8.62;100.00
51299;BME280;37382;45.192;9.790;2023-04-01T04:11:38;100155.63;;;8.64;100.00
51299;BME280;37382;45.192;9.790;2023-04-01T04:14:06;100150.13;;;8.57;100.00
51299;BME280;37382;45.192;9.790;2023-04-01T04:16:35;100150.13;;;8.57;100.00
51299;BME280;37382;45.192;9.790;2023-04-01T04:19:04;100157.44;;;8.57;100.00
51299;BME280;37382;45.192;9.790;2023-04-01T04:21:32;100151.78;;;8.51;100.00
51299;BME280;37382;45.192;9.790;2023-04-01T04:24:00;100150.94;;;8.51;100.00
51299;BME280;37382;45.192;9.790;2023-04-01T04:26:42;100155.72;;;8.49;100.00
51299;BME280;37382;45.192;9.790;2023-04-01T04:29:10;100166.16;;;8.45;100.00
51299;BME280;37382;45.192;9.790;2023-04-01T04:31:38;100162.91;;;8.35;100.00
51299;BME280;37382;45.192;9.790;2023-04-01T04:34:06;100159.16;;;8.36;100.00
51299;BME280;37382;45.192;9.790;2023-04-01T04:36:35;100168.84;;;8.45;100.00
51299;BME280;37382;45.192;9.790;2023-04-01T04:39:03;100178.16;;;8.36;100.00
51299;BME280;37382;45.192;9.790;2023-04-01T04:41:32;100182.50;;;8.37;100.00
51299;BME280;37382;45.192;9.790;2023-04-01T04:44:04;100179.00;;;8.43;100.00
51299;BME280;37382;45.192;9.790;2023-04-01T04:46:32;100193.28;;;8.52;100.00
51299;BME280;37382;45.192;9.790;2023-04-01T04:49:09;100197.47;;;8.54;100.00
51299;BME280;37382;45.192;9.790;2023-04-01T04:51:37;100195.56;;;8.48;100.00
51299;BME280;37382;45.192;9.790;2023-04-01T04:54:06;100201.53;;;8.72;100.00
51299;BME280;37382;45.192;9.790;2023-04-01T04:56:53;100208.78;;;8.65;100.00
51299;BME280;37382;45.192;9.790;2023-04-01T04:59:23;100194.31;;;8.51;100.00
51299;BME280;37382;45.192;9.790;2023-04-01T05:02:07;100184.75;;;8.83;100.00
51299;BME280;37382;45.192;9.790;2023-04-01T05:04:35;100200.94;;;8.20;100.00
51299;BME280;37382;45.192;9.790;2023-04-01T05:07:05;100191.69;;;8.36;100.00
51299;BME280;37382;45.192;9.790;2023-04-01T05:09:33;100195.03;;;8.38;100.00
51299;BME280;37382;45.192;9.790;2023-04-01T05:12:02;100200.97;;;8.27;100.00
51299;BME280;37382;45.192;9.790;2023-04-01T05:14:47;100194.44;;;8.43;100.00
51299;BME280;37382;45.192;9.790;2023-04-01T05:17:15;100200.25;;;8.40;100.00
51299;BME280;37382;45.192;9.790;2023-04-01T05:19:43;100210.59;;;8.29;100.00
51299;BME280;37382;45.192;9.790;2023-04-01T05:22:11;100214.94;;;8.45;100.00
51299;BME280;37382;45.192;9.790;2023-04-01T05:24:40;100218.78;;;8.58;100.00
51299;BME280;37382;45.192;9.790;2023-04-01T05:27:08;100225.22;;;8.57;100.00
51299;BME280;37382;45.192;9.790;2023-04-01T05:29:39;100224.63;;;8.61;100.00
51299;BME280;37382;45.192;9.790;2023-04-01T05:32:12;100211.59;;;8.78;100.00
51299;BME280;37382;45.192;9.790;2023-04-01T05:34:40;100207.09;;;8.92;100.00
51299;BME280;37382;45.192;9.790;2023-04-01T05:37:08;100205.75;;;8.75;100.00
51299;BME280;37382;45.192;9.790;2023-04-01T05:39:37;100205.72;;;8.68;100.00
51299;BME280;37382;45.192;9.790;2023-04-01T05:42:06;100215.97;;;8.72;100.00
51299;BME280;37382;45.192;9.790;2023-04-01T05:44:35;100217.34;;;8.97;100.00
51299;BME280;37382;45.192;9.790;2023-04-01T05:47:23;100228.78;;;8.92;100.00
51299;BME280;37382;45.192;9.790;2023-04-01T05:49:51;100241.22;;;8.80;100.00
51299;BME280;37382;45.192;9.790;2023-04-01T05:52:19;100246.38;;;9.03;100.00
51299;BME280;37382;45.192;9.790;2023-04-01T05:54:47;100245.22;;;8.84;100.00
51299;BME280;37382;45.192;9.790;2023-04-01T05:57:15;100244.22;;;8.85;100.00
51299;BME280;37382;45.192;9.790;2023-04-01T05:59:43;100232.97;;;8.88;100.00
51299;BME280;37382;45.192;9.790;2023-04-01T06:02:11;100239.22;;;8.88;100.00
51299;BME280;37382;45.192;9.790;2023-04-01T06:04:39;100242.16;;;8.94;100.00
51299;BME280;37382;45.192;9.790;2023-04-01T06:07:11;100230.63;;;9.20;100.00
51299;BME280;37382;45.192;9.790;2023-04-01T06:09:39;100239.13;;;9.10;100.00
51299;BME280;37382;45.192;9.790;2023-04-01T06:15:13;100238.56;;;9.21;100.00
51299;BME280;37382;45.192;9.790;2023-04-01T06:52:23;100234.03;;;10.84;100.00
51299;BME280;37382;45.192;9.790;2023-04-01T06:55:26;100236.34;;;10.80;100.00
51299;BME280;37382;45.192;9.790;2023-04-01T06:58:24;100231.78;;;10.67;100.00
51299;BME280;37382;45.192;9.790;2023-04-01T07:00:56;100241.59;;;10.68;100.00
51299;BME280;37382;45.192;9.790;2023-04-01T07:03:40;100248.09;;;10.67;100.00
51299;BME280;37382;45.192;9.790;2023-04-01T07:06:14;100239.31;;;10.72;100.00
51299;BME280;37382;45.192;9.790;2023-04-01T07:08:52;100239.25;;;10.85;100.00
51299;BME280;37382;45.192;9.790;2023-04-01T07:11:28;100234.41;;;11.08;100.00
51299;BME280;37382;45.192;9.790;2023-04-01T07:14:30;100234.25;;;10.89;100.00
51299;BME280;37382;45.192;9.790;2023-04-01T07:17:17;100234.63;;;11.06;100.00
51299;BME280;37382;45.192;9.790;2023-04-01T07:20:02;100226.09;;;10.89;100.00
51299;BME280;37382;45.192;9.790;2023-04-01T07:27:53;100228.28;;;11.19;100.00
51299;BME280;37382;45.192;9.790;2023-04-01T07:30:26;100219.91;;;11.27;100.00
51299;BME280;37382;45.192;9.790;2023-04-01T07:33:04;100225.53;;;11.39;100.00
51299;BME280;37382;45.192;9.790;2023-04-01T07:35:46;100224.88;;;11.37;100.00
51299;BME280;37382;45.192;9.790;2023-04-01T07:52:01;100257.47;;;12.09;100.00
51299;BME280;37382;45.192;9.790;2023-04-01T07:57:11;100251.59;;;12.37;100.00
51299;BME280;37382;45.192;9.790;2023-04-01T07:59:58;100254.50;;;12.42;100.00
51299;BME280;37382;45.192;9.790;2023-04-01T08:03:21;100252.91;;;12.78;100.00
51299;BME280;37382;45.192;9.790;2023-04-01T08:08:36;100246.09;;;12.88;100.00
51299;BME280;37382;45.192;9.790;2023-04-01T08:16:06;100256.75;;;12.96;100.00
51299;BME280;37382;45.192;9.790;2023-04-01T08:18:46;100246.22;;;13.18;100.00
51299;BME280;37382;45.192;9.790;2023-04-01T08:21:23;100243.78;;;13.28;100.00
51299;BME280;37382;45.192;9.790;2023-04-01T08:24:07;100225.34;;;13.24;100.00
51299;BME280;37382;45.192;9.790;2023-04-01T08:26:46;100229.69;;;13.50;100.00
51299;BME280;37382;45.192;9.790;2023-04-01T08:29:19;100222.53;;;13.49;100.00
51299;BME280;37382;45.192;9.790;2023-04-01T08:31:56;100215.06;;;13.75;100.00
51299;BME280;37382;45.192;9.790;2023-04-01T08:34:32;100223.78;;;13.83;100.00
51299;BME280;37382;45.192;9.790;2023-04-01T08:37:09;100216.59;;;13.70;100.00
51299;BME280;37382;45.192;9.790;2023-04-01T08:39:46;100221.03;;;13.83;100.00
51299;BME280;37382;45.192;9.790;2023-04-01T08:42:36;100225.44;;;14.27;100.00
51299;BME280;37382;45.192;9.790;2023-04-01T08:45:35;100227.38;;;14.38;100.00
51299;BME280;37382;45.192;9.790;2023-04-01T08:54:42;100235.38;;;14.51;100.00
51299;BME280;37382;45.192;9.790;2023-04-01T08:57:03;100228.63;;;14.66;100.00
51299;BME280;37382;45.192;9.790;2023-04-01T09:06:41;100233.16;;;14.96;94.02
51299;BME280;37382;45.192;9.790;2023-04-01T09:15:05;100259.09;;;15.05;81.03
51299;BME280;37382;45.192;9.790;2023-04-01T09:20:50;100246.63;;;15.50;80.77
51299;BME280;37382;45.192;9.790;2023-04-01T09:32:12;100242.13;;;15.72;80.00
51299;BME280;37382;45.192;9.790;2023-04-01T09:35:22;100237.09;;;15.93;77.24
51299;BME280;37382;45.192;9.790;2023-04-01T09:44:05;100238.59;;;16.00;70.68
51299;BME280;37382;45.192;9.790;2023-04-01T09:47:06;100238.34;;;16.02;73.18
51299;BME280;37382;45.192;9.790;2023-04-01T10:24:16;100220.22;;;17.25;64.55
51299;BME280;37382;45.192;9.790;2023-04-01T10:27:21;100207.31;;;17.03;63.10
51299;BME280;37382;45.192;9.790;2023-04-01T11:48:22;100149.97;;;19.75;39.50
51299;BME280;37382;45.192;9.790;2023-04-01T11:57:40;100144.91;;;19.36;34.02
51299;BME280;37382;45.192;9.790;2023-04-01T12:06:21;100138.31;;;19.47;35.13
51299;BME280;37382;45.192;9.790;2023-04-01T12:11:57;100129.06;;;19.95;35.14
51299;BME280;37382;45.192;9.790;2023-04-01T12:14:37;100135.34;;;19.69;32.48
51299;BME280;37382;45.192;9.790;2023-04-01T12:25:54;100130.16;;;21.26;33.71
51299;BME280;37382;45.192;9.790;2023-04-01T12:42:48;100119.88;;;20.56;29.65
51299;BME280;37382;45.192;9.790;2023-04-01T12:45:28;100113.34;;;21.17;30.26
51299;BME280;37382;45.192;9.790;2023-04-01T12:53:35;100091.31;;;22.50;28.08
51299;BME280;37382;45.192;9.790;2023-04-01T12:56:14;100097.72;;;22.16;28.76
51299;BME280;37382;45.192;9.790;2023-04-01T13:01:49;100084.63;;;21.58;28.27
51299;BME280;37382;45.192;9.790;2023-04-01T13:10:49;100083.97;;;21.71;28.01
51299;BME280;37382;45.192;9.790;2023-04-01T13:26:59;100055.00;;;22.22;28.96
51299;BME280;37382;45.192;9.790;2023-04-01T13:29:29;100054.88;;;22.08;28.32
51299;BME280;37382;45.192;9.790;2023-04-01T13:35:36;100052.69;;;22.83;29.32
51299;BME280;37382;45.192;9.790;2023-04-01T13:38:32;100042.34;;;22.11;28.75
51299;BME280;37382;45.192;9.790;2023-04-01T13:43:47;100035.88;;;23.17;27.39
51299;BME280;37382;45.192;9.790;2023-04-01T13:46:38;100040.97;;;21.79;27.79
51299;BME280;37382;45.192;9.790;2023-04-01T13:55:52;100034.44;;;23.01;28.57
51299;BME280;37382;45.192;9.790;2023-04-01T13:58:43;100039.72;;;22.78;27.42
51299;BME280;37382;45.192;9.790;2023-04-01T14:07:08;100019.59;;;23.30;28.12
51299;BME280;37382;45.192;9.790;2023-04-01T14:12:59;100022.41;;;22.43;28.14
51299;BME280;37382;45.192;9.790;2023-04-01T14:15:36;100022.50;;;23.00;28.21
51299;BME280;37382;45.192;9.790;2023-04-01T14:21:44;99937.41;;;26.22;24.48
51299;BME280;37382;45.192;9.790;2023-04-01T14:24:34;99931.63;;;29.68;22.87
51299;BME280;37382;45.192;9.790;2023-04-01T14:27:12;99962.31;;;26.68;23.24
51299;BME280;37382;45.192;9.790;2023-04-01T14:38:02;99968.75;;;25.97;24.29
51299;BME280;37382;45.192;9.790;2023-04-01T14:40:53;99965.56;;;26.61;24.22
51299;BME280;37382;45.192;9.790;2023-04-01T14:44:01;99971.44;;;28.47;22.76
51299;BME280;37382;45.192;9.790;2023-04-01T14:46:47;99969.25;;;27.66;23.29
51299;BME280;37382;45.192;9.790;2023-04-01T14:49:36;99979.09;;;26.27;25.99
51299;BME280;37382;45.192;9.790;2023-04-01T14:52:11;99972.38;;;25.07;24.94
51299;BME280;37382;45.192;9.790;2023-04-01T14:54:46;99964.28;;;26.18;24.73
51299;BME280;37382;45.192;9.790;2023-04-01T14:57:23;99964.00;;;26.28;24.42
51299;BME280;37382;45.192;9.790;2023-04-01T14:59:54;99964.28;;;28.67;23.95
51299;BME280;37382;45.192;9.790;2023-04-01T15:02:51;99961.38;;;27.68;23.87
51299;BME280;37382;45.192;9.790;2023-04-01T15:05:37;99962.06;;;26.95;24.83
51299;BME280;37382;45.192;9.790;2023-04-01T15:08:15;99961.50;;;26.18;24.56
51299;BME280;37382;45.192;9.790;2023-04-01T15:13:33;99957.78;;;27.59;23.96
51299;BME280;37382;45.192;9.790;2023-04-01T15:24:26;99950.47;;;25.50;25.02
51299;BME280;37382;45.192;9.790;2023-04-01T15:27:25;99943.34;;;27.05;23.85
51299;BME280;37382;45.192;9.790;2023-04-01T15:41:14;99929.63;;;26.59;25.51
51299;BME280;37382;45.192;9.790;2023-04-01T15:43:52;99934.97;;;26.30;25.55
51299;BME280;37382;45.192;9.790;2023-04-01T15:57:26;99933.38;;;25.66;27.20
51299;BME280;37382;45.192;9.790;2023-04-01T16:02:51;99932.44;;;26.10;27.05
51299;BME280;37382;45.192;9.790;2023-04-01T16:11:08;99920.06;;;29.02;24.27
51299;BME280;37382;45.192;9.790;2023-04-01T16:16:47;99917.38;;;27.13;25.29
51299;BME280;37382;45.192;9.790;2023-04-01T16:19:22;99921.72;;;26.44;26.54
51299;BME280;37382;45.192;9.790;2023-04-01T16:22:07;99928.28;;;25.00;27.29
51299;BME280;37382;45.192;9.790;2023-04-01T16:24:51;99914.78;;;24.71;28.55
51299;BME280;37382;45.192;9.790;2023-04-01T16:27:29;99929.94;;;26.40;27.69
51299;BME280;37382;45.192;9.790;2023-04-01T16:30:22;99916.91;;;28.62;24.78
51299;BME280;37382;45.192;9.790;2023-04-01T16:35:54;99905.09;;;32.05;21.52
51299;BME280;37382;45.192;9.790;2023-04-01T16:38:41;99902.63;;;33.49;21.61
51299;BME280;37382;45.192;9.790;2023-04-01T16:41:34;99904.38;;;31.77;22.06
51299;BME280;37382;45.192;9.790;2023-04-01T16:46:59;99899.72;;;31.24;21.38
51299;BME280;37382;45.192;9.790;2023-04-01T16:49:42;99905.97;;;32.41;21.07
51299;BME280;37382;45.192;9.790;2023-04-01T16:55:16;99907.03;;;29.19;22.88
51299;BME280;37382;45.192;9.790;2023-04-01T16:57:55;99906.19;;;31.12;22.40
51299;BME280;37382;45.192;9.790;2023-04-01T17:19:45;99918.91;;;21.51;29.50
51299;BME280;37382;45.192;9.790;2023-04-01T17:22:33;99919.91;;;21.90;31.31
51299;BME280;37382;45.192;9.790;2023-04-01T17:37:01;99932.91;;;20.31;37.16
51299;BME280;37382;45.192;9.790;2023-04-01T17:52:53;99943.56;;;19.72;37.63
51299;BME280;37382;45.192;9.790;2023-04-01T17:55:54;99946.84;;;19.64;39.01
51299;BME280;37382;45.192;9.790;2023-04-01T18:03:50;99948.22;;;18.99;41.37
51299;BME280;37382;45.192;9.790;2023-04-01T18:09:08;99940.88;;;18.42;41.01
51299;BME280;37382;45.192;9.790;2023-04-01T18:27:43;99968.34;;;17.84;44.73
51299;BME280;37382;45.192;9.790;2023-04-01T18:30:31;99965.78;;;17.67;42.91
51299;BME280;37382;45.192;9.790;2023-04-01T18:33:06;99960.97;;;17.52;43.54
51299;BME280;37382;45.192;9.790;2023-04-01T18:35:51;99957.63;;;17.45;45.37
51299;BME280;37382;45.192;9.790;2023-04-01T18:38:28;99965.41;;;17.53;45.74
51299;BME280;37382;45.192;9.790;2023-04-01T18:41:21;99964.94;;;17.34;46.34
51299;BME280;37382;45.192;9.790;2023-04-01T18:44:16;99964.41;;;17.32;46.84
51299;BME280;37382;45.192;9.790;2023-04-01T18:49:59;99969.16;;;16.87;48.08
51299;BME280;37382;45.192;9.790;2023-04-01T18:52:48;99971.03;;;16.59;47.82
51299;BME280;37382;45.192;9.790;2023-04-01T18:55:29;99971.38;;;16.63;49.07
51299;BME280;37382;45.192;9.790;2023-04-01T19:00:48;99973.53;;;16.39;51.07
51299;BME280;37382;45.192;9.790;2023-04-01T19:05:47;99983.31;;;16.29;51.20
51299;BME280;37382;45.192;9.790;2023-04-01T19:08:19;99978.19;;;16.38;47.84
51299;BME280;37382;45.192;9.790;2023-04-01T19:21:57;99994.31;;;16.12;50.05
51299;BME280;37382;45.192;9.790;2023-04-01T19:24:48;99996.75;;;16.09;56.83
51299;BME280;37382;45.192;9.790;2023-04-01T19:27:33;99982.28;;;16.35;52.80
51299;BME280;37382;45.192;9.790;2023-04-01T19:30:26;99988.50;;;16.09;53.52
51299;BME280;37382;45.192;9.790;2023-04-01T19:38:38;100000.75;;;16.01;53.38
51299;BME280;37382;45.192;9.790;2023-04-01T19:46:49;100001.41;;;16.08;52.09
51299;BME280;37382;45.192;9.790;2023-04-01T19:49:42;100008.03;;;16.12;47.74
51299;BME280;37382;45.192;9.790;2023-04-01T19:52:26;100004.75;;;15.93;48.68
51299;BME280;37382;45.192;9.790;2023-04-01T19:55:21;100010.06;;;16.00;50.70
51299;BME280;37382;45.192;9.790;2023-04-01T20:00:39;100019.88;;;15.96;51.34
51299;BME280;37382;45.192;9.790;2023-04-01T20:11:54;100019.28;;;15.77;51.38
51299;BME280;37382;45.192;9.790;2023-04-01T20:17:17;100025.13;;;15.80;52.43
51299;BME280;37382;45.192;9.790;2023-04-01T20:19:57;100027.06;;;15.51;49.79
51299;BME280;37382;45.192;9.790;2023-04-01T20:22:38;100023.69;;;15.44;53.32
51299;BME280;37382;45.192;9.790;2023-04-01T20:28:00;100026.69;;;15.59;52.21
51299;BME280;37382;45.192;9.790;2023-04-01T20:31:01;100031.94;;;15.15;51.81
51299;BME280;37382;45.192;9.790;2023-04-01T20:51:25;100044.88;;;13.91;57.85
51299;BME280;37382;45.192;9.790;2023-04-01T20:54:42;100043.69;;;13.87;58.10
51299;BME280;37382;45.192;9.790;2023-04-01T20:57:18;100035.13;;;13.83;57.07
51299;BME280;37382;45.192;9.790;2023-04-01T21:06:10;100044.63;;;13.81;56.07
51299;BME280;37382;45.192;9.790;2023-04-01T21:28:35;100060.81;;;14.06;57.21
51299;BME280;37382;45.192;9.790;2023-04-01T21:34:04;100064.63;;;14.40;57.53
51299;BME280;37382;45.192;9.790;2023-04-01T21:44:43;100062.69;;;14.65;54.15
51299;BME280;37382;45.192;9.790;2023-04-01T22:00:38;100097.22;;;13.95;57.98
51299;BME280;37382;45.192;9.790;2023-04-01T22:03:15;100088.97;;;13.71;59.36
51299;BME280;37382;45.192;9.790;2023-04-01T22:09:13;100093.59;;;13.10;60.48
51299;BME280;37382;45.192;9.790;2023-04-01T22:11:48;100090.75;;;13.16;63.22
51299;BME280;37382;45.192;9.790;2023-04-01T22:20:25;100106.56;;;12.40;66.36
51299;BME280;37382;45.192;9.790;2023-04-01T22:31:17;100107.94;;;11.49;86.28
51299;BME280;37382;45.192;9.790;2023-04-01T22:42:46;100111.41;;;11.95;85.58
51299;BME280;37382;45.192;9.790;2023-04-01T22:48:13;100114.25;;;12.06;84.61
51299;BME280;37382;45.192;9.790;2023-04-01T22:50:58;100112.66;;;11.60;88.60
51299;BME280;37382;45.192;9.790;2023-04-01T22:56:27;100114.63;;;11.78;86.56
51299;BME280;37382;45.192;9.790;2023-04-01T23:01:36;100107.34;;;12.48;80.09
51299;BME280;37382;45.192;9.790;2023-04-01T23:04:09;100101.06;;;12.47;78.25
51299;BME280;37382;45.192;9.790;2023-04-01T23:06:46;100102.50;;;12.68;77.98
51299;BME280;37382;45.192;9.790;2023-04-01T23:09:28;100103.44;;;12.80;76.71
51299;BME280;37382;45.192;9.790;2023-04-01T23:11:58;100107.81;;;12.81;76.04
51299;BME280;37382;45.192;9.790;2023-04-01T23:17:19;100111.81;;;12.97;76.07
51299;BME280;37382;45.192;9.790;2023-04-01T23:25:15;100112.13;;;12.08;83.81
51299;BME280;37382;45.192;9.790;2023-04-01T23:27:56;100116.16;;;11.42;90.59
51299;BME280;37382;45.192;9.790;2023-04-01T23:35:56;100121.13;;;11.07;100.00
51299;BME280;37382;45.192;9.790;2023-04-01T23:38:41;100123.56;;;10.70;100.00
51299;BME280;37382;45.192;9.790;2023-04-01T23:41:17;100122.03;;;10.87;100.00
51299;BME280;37382;45.192;9.790;2023-04-01T23:43:56;100119.97;;;10.82;100.00
51299;BME280;37382;45.192;9.790;2023-04-01T23:46:26;100123.59;;;10.63;100.00
51299;BME280;37382;45.192;9.790;2023-04-01T23:48:54;100134.06;;;10.59;100.00